sensor_id;sensor_type;location;lat;lon;timestamp;P1;durP1;ratioP1;P2;durP2;ratioP2
24143;SDS011;12307;50.828;6.080;2022-11-10T00:00:18;1.95;;;0.88;;
24143;SDS011;12307;50.828;6.080;2022-11-10T00:02:44;2.53;;;1.08;;
24143;SDS011;12307;50.828;6.080;2022-11-10T00:05:11;1.30;;;0.90;;
24143;SDS011;12307;50.828;6.080;2022-11-10T00:07:37;2.83;;;1.00;;
24143;SDS011;12307;50.828;6.080;2022-11-10T00:10:04;4.72;;;1.30;;
24143;SDS011;12307;50.828;6.080;2022-11-10T00:12:31;3.10;;;1.15;;
24143;SDS011;12307;50.828;6.080;2022-11-10T00:14:58;2.38;;;1.02;;
24143;SDS011;12307;50.828;6.080;2022-11-10T00:17:43;2.53;;;1.05;;
24143;SDS011;12307;50.828;6.080;2022-11-10T00:20:09;3.42;;;1.40;;
24143;SDS011;12307;50.828;6.080;2022-11-10T00:22:36;2.55;;;1.33;;
24143;SDS011;12307;50.828;6.080;2022-11-10T00:25:03;2.95;;;0.90;;
24143;SDS011;12307;50.828;6.080;2022-11-10T00:27:30;1.83;;;1.05;;
24143;SDS011;12307;50.828;6.080;2022-11-10T00:29:56;3.33;;;1.05;;
24143;SDS011;12307;50.828;6.080;2022-11-10T00:32:23;1.70;;;0.77;;
24143;SDS011;12307;50.828;6.080;2022-11-10T00:34:49;2.42;;;1.10;;
24143;SDS011;12307;50.828;6.080;2022-11-10T00:37:15;2.08;;;1.00;;
24143;SDS011;12307;50.828;6.080;2022-11-10T00:39:41;2.35;;;0.95;;
24143;SDS011;12307;50.828;6.080;2022-11-10T00:42:07;2.72;;;1.10;;
24143;SDS011;12307;50.828;6.080;2022-11-10T00:44:32;3.08;;;1.00;;
24143;SDS011;12307;50.828;6.080;2022-11-10T00:46:59;2.85;;;1.08;;
24143;SDS011;12307;50.828;6.080;2022-11-10T00:49:25;3.17;;;1.10;;
24143;SDS011;12307;50.828;6.080;2022-11-10T00:51:51;1.73;;;0.93;;
24143;SDS011;12307;50.828;6.080;2022-11-10T00:54:17;2.03;;;1.00;;
24143;SDS011;12307;50.828;6.080;2022-11-10T00:56:43;2.25;;;0.90;;
24143;SDS011;12307;50.828;6.080;2022-11-10T00:59:08;4.30;;;1.02;;
24143;SDS011;12307;50.828;6.080;2022-11-10T01:01:34;2.30;;;0.80;;
24143;SDS011;12307;50.828;6.080;2022-11-10T01:04:02;2.47;;;1.02;;
24143;SDS011;12307;50.828;6.080;2022-11-10T01:06:28;1.65;;;1.00;;
24143;SDS011;12307;50.828;6.080;2022-11-10T01:08:53;1.70;;;1.00;;
24143;SDS011;12307;50.828;6.080;2022-11-10T01:11:20;2.53;;;1.00;;
24143;SDS011;12307;50.828;6.080;2022-11-10T01:13:48;3.05;;;0.98;;
24143;SDS011;12307;50.828;6.080;2022-11-10T01:16:15;1.75;;;0.90;;
24143;SDS011;12307;50.828;6.080;2022-11-10T01:18:43;1.65;;;0.80;;
24143;SDS011;12307;50.828;6.080;2022-11-10T01:21:13;2.80;;;0.90;;
24143;SDS011;12307;50.828;6.080;2022-11-10T01:23:39;2.20;;;0.80;;
24143;SDS011;12307;50.828;6.080;2022-11-10T01:26:06;1.95;;;1.02;;
24143;SDS011;12307;50.828;6.080;2022-11-10T01:28:32;1.67;;;1.00;;
24143;SDS011;12307;50.828;6.080;2022-11-10T01:30:59;2.13;;;0.95;;
24143;SDS011;12307;50.828;6.080;2022-11-10T01:33:26;2.00;;;0.90;;
24143;SDS011;12307;50.828;6.080;2022-11-10T01:35:52;2.20;;;1.00;;
24143;SDS011;12307;50.828;6.080;2022-11-10T01:38:19;2.15;;;1.10;;
24143;SDS011;12307;50.828;6.080;2022-11-10T01:40:44;2.25;;;1.00;;
24143;SDS011;12307;50.828;6.080;2022-11-10T01:43:10;2.28;;;0.95;;
24143;SDS011;12307;50.828;6.080;2022-11-10T01:45:43;2.50;;;1.30;;
24143;SDS011;12307;50.828;6.080;2022-11-10T01:48:11;2.45;;;1.10;;
24143;SDS011;12307;50.828;6.080;2022-11-10T01:50:41;2.17;;;1.10;;
24143;SDS011;12307;50.828;6.080;2022-11-10T01:53:10;2.25;;;0.93;;
24143;SDS011;12307;50.828;6.080;2022-11-10T01:55:42;1.73;;;0.88;;
24143;SDS011;12307;50.828;6.080;2022-11-10T01:58:10;2.22;;;0.80;;
24143;SDS011;12307;50.828;6.080;2022-11-10T02:00:39;2.47;;;1.05;;
24143;SDS011;12307;50.828;6.080;2022-11-10T02:03:06;3.05;;;0.90;;
24143;SDS011;12307;50.828;6.080;2022-11-10T02:05:36;2.90;;;1.00;;
24143;SDS011;12307;50.828;6.080;2022-11-10T02:08:02;2.47;;;1.00;;
24143;SDS011;12307;50.828;6.080;2022-11-10T02:10:29;2.70;;;1.00;;
24143;SDS011;12307;50.828;6.080;2022-11-10T02:12:56;2.75;;;1.00;;
24143;SDS011;12307;50.828;6.080;2022-11-10T02:15:22;2.55;;;1.13;;
24143;SDS011;12307;50.828;6.080;2022-11-10T02:17:48;2.28;;;0.90;;
24143;SDS011;12307;50.828;6.080;2022-11-10T02:20:16;3.15;;;1.27;;
24143;SDS011;12307;50.828;6.080;2022-11-10T02:22:45;2.33;;;1.10;;
24143;SDS011;12307;50.828;6.080;2022-11-10T02:25:11;2.08;;;0.95;;
24143;SDS011;12307;50.828;6.080;2022-11-10T02:27:39;2.38;;;1.27;;
24143;SDS011;12307;50.828;6.080;2022-11-10T02:30:05;2.33;;;0.98;;
24143;SDS011;12307;50.828;6.080;2022-11-10T02:32:32;1.50;;;0.70;;
24143;SDS011;12307;50.828;6.080;2022-11-10T02:34:57;2.05;;;1.00;;
24143;SDS011;12307;50.828;6.080;2022-11-10T02:37:23;3.90;;;0.90;;
24143;SDS011;12307;50.828;6.080;2022-11-10T02:39:50;2.78;;;0.98;;
24143;SDS011;12307;50.828;6.080;2022-11-10T02:42:15;2.25;;;0.90;;
24143;SDS011;12307;50.828;6.080;2022-11-10T02:44:41;2.20;;;1.05;;
24143;SDS011;12307;50.828;6.080;2022-11-10T02:47:07;2.78;;;0.90;;
24143;SDS011;12307;50.828;6.080;2022-11-10T02:49:33;3.72;;;1.05;;
24143;SDS011;12307;50.828;6.080;2022-11-10T02:51:59;3.05;;;1.33;;
24143;SDS011;12307;50.828;6.080;2022-11-10T02:54:24;2.17;;;0.95;;
24143;SDS011;12307;50.828;6.080;2022-11-10T02:56:51;2.75;;;1.10;;
24143;SDS011;12307;50.828;6.080;2022-11-10T02:59:17;2.22;;;0.90;;
24143;SDS011;12307;50.828;6.080;2022-11-10T03:01:42;4.10;;;1.02;;
24143;SDS011;12307;50.828;6.080;2022-11-10T03:04:08;2.83;;;1.10;;
24143;SDS011;12307;50.828;6.080;2022-11-10T03:06:34;1.83;;;0.95;;
24143;SDS011;12307;50.828;6.080;2022-11-10T03:08:59;1.38;;;0.80;;
24143;SDS011;12307;50.828;6.080;2022-11-10T03:11:25;2.63;;;1.00;;
24143;SDS011;12307;50.828;6.080;2022-11-10T03:13:52;3.60;;;1.27;;
24143;SDS011;12307;50.828;6.080;2022-11-10T03:16:18;3.08;;;1.00;;
24143;SDS011;12307;50.828;6.080;2022-11-10T03:18:44;2.55;;;0.88;;
24143;SDS011;12307;50.828;6.080;2022-11-10T03:21:09;3.53;;;1.00;;
24143;SDS011;12307;50.828;6.080;2022-11-10T03:23:35;2.88;;;0.90;;
24143;SDS011;12307;50.828;6.080;2022-11-10T03:26:02;2.72;;;1.00;;
24143;SDS011;12307;50.828;6.080;2022-11-10T03:28:28;1.98;;;1.00;;
24143;SDS011;12307;50.828;6.080;2022-11-10T03:30:55;2.70;;;1.00;;
24143;SDS011;12307;50.828;6.080;2022-11-10T03:33:21;1.42;;;0.70;;
24143;SDS011;12307;50.828;6.080;2022-11-10T03:35:47;2.35;;;1.10;;
24143;SDS011;12307;50.828;6.080;2022-11-10T03:38:12;4.00;;;1.05;;
24143;SDS011;12307;50.828;6.080;2022-11-10T03:40:38;3.65;;;1.10;;
24143;SDS011;12307;50.828;6.080;2022-11-10T03:43:03;3.13;;;1.27;;
24143;SDS011;12307;50.828;6.080;2022-11-10T03:45:29;2.35;;;1.13;;
24143;SDS011;12307;50.828;6.080;2022-11-10T03:47:56;2.13;;;1.17;;
24143;SDS011;12307;50.828;6.080;2022-11-10T03:50:22;1.85;;;0.80;;
24143;SDS011;12307;50.828;6.080;2022-11-10T03:52:47;3.10;;;1.05;;
24143;SDS011;12307;50.828;6.080;2022-11-10T03:55:14;2.20;;;0.95;;
24143;SDS011;12307;50.828;6.080;2022-11-10T03:57:42;2.10;;;1.02;;
24143;SDS011;12307;50.828;6.080;2022-11-10T04:00:08;2.50;;;0.93;;
24143;SDS011;12307;50.828;6.080;2022-11-10T04:02:35;2.67;;;1.10;;
24143;SDS011;12307;50.828;6.080;2022-11-10T04:05:02;3.30;;;1.15;;
24143;SDS011;12307;50.828;6.080;2022-11-10T04:07:48;2.90;;;1.00;;
24143;SDS011;12307;50.828;6.080;2022-11-10T04:10:40;3.53;;;1.13;;
24143;SDS011;12307;50.828;6.080;2022-11-10T04:13:06;2.58;;;0.95;;
24143;SDS011;12307;50.828;6.080;2022-11-10T04:15:51;2.55;;;0.85;;
24143;SDS011;12307;50.828;6.080;2022-11-10T04:18:16;3.17;;;1.23;;
24143;SDS011;12307;50.828;6.080;2022-11-10T04:20:46;2.03;;;0.93;;
24143;SDS011;12307;50.828;6.080;2022-11-10T04:23:12;2.95;;;0.90;;
24143;SDS011;12307;50.828;6.080;2022-11-10T04:25:51;1.55;;;0.90;;
24143;SDS011;12307;50.828;6.080;2022-11-10T04:28:35;3.90;;;1.00;;
24143;SDS011;12307;50.828;6.080;2022-11-10T04:31:00;1.92;;;0.80;;
24143;SDS011;12307;50.828;6.080;2022-11-10T04:33:26;3.78;;;1.25;;
24143;SDS011;12307;50.828;6.080;2022-11-10T04:35:53;3.30;;;0.90;;
24143;SDS011;12307;50.828;6.080;2022-11-10T04:38:19;3.42;;;1.02;;
24143;SDS011;12307;50.828;6.080;2022-11-10T04:40:44;2.03;;;0.90;;
24143;SDS011;12307;50.828;6.080;2022-11-10T04:43:10;3.13;;;1.10;;
24143;SDS011;12307;50.828;6.080;2022-11-10T04:45:36;3.25;;;0.82;;
24143;SDS011;12307;50.828;6.080;2022-11-10T04:48:01;2.53;;;0.93;;
24143;SDS011;12307;50.828;6.080;2022-11-10T04:50:27;1.58;;;0.80;;
24143;SDS011;12307;50.828;6.080;2022-11-10T04:52:54;2.95;;;0.95;;
24143;SDS011;12307;50.828;6.080;2022-11-10T04:55:20;2.90;;;1.17;;
24143;SDS011;12307;50.828;6.080;2022-11-10T04:57:45;2.20;;;0.80;;
24143;SDS011;12307;50.828;6.080;2022-11-10T05:00:11;2.22;;;1.00;;
24143;SDS011;12307;50.828;6.080;2022-11-10T05:02:38;2.47;;;1.10;;
24143;SDS011;12307;50.828;6.080;2022-11-10T05:05:04;2.80;;;1.10;;
24143;SDS011;12307;50.828;6.080;2022-11-10T05:07:30;1.67;;;0.82;;
24143;SDS011;12307;50.828;6.080;2022-11-10T05:09:57;2.15;;;0.88;;
24143;SDS011;12307;50.828;6.080;2022-11-10T05:12:22;2.22;;;0.95;;
24143;SDS011;12307;50.828;6.080;2022-11-10T05:14:48;1.83;;;0.90;;
24143;SDS011;12307;50.828;6.080;2022-11-10T05:17:14;2.80;;;1.00;;
24143;SDS011;12307;50.828;6.080;2022-11-10T05:19:39;2.60;;;1.25;;
24143;SDS011;12307;50.828;6.080;2022-11-10T05:22:05;4.70;;;1.30;;
24143;SDS011;12307;50.828;6.080;2022-11-10T05:24:31;1.85;;;1.20;;
24143;SDS011;12307;50.828;6.080;2022-11-10T05:26:58;1.85;;;0.90;;
24143;SDS011;12307;50.828;6.080;2022-11-10T05:29:24;3.30;;;1.00;;
24143;SDS011;12307;50.828;6.080;2022-11-10T05:31:50;2.75;;;1.00;;
24143;SDS011;12307;50.828;6.080;2022-11-10T05:34:15;3.50;;;1.30;;
24143;SDS011;12307;50.828;6.080;2022-11-10T05:36:41;1.92;;;1.00;;
24143;SDS011;12307;50.828;6.080;2022-11-10T05:39:07;2.22;;;0.90;;
24143;SDS011;12307;50.828;6.080;2022-11-10T05:41:32;3.03;;;1.10;;
24143;SDS011;12307;50.828;6.080;2022-11-10T05:43:59;2.63;;;1.00;;
24143;SDS011;12307;50.828;6.080;2022-11-10T05:46:25;2.67;;;1.17;;
24143;SDS011;12307;50.828;6.080;2022-11-10T05:48:51;3.25;;;1.20;;
24143;SDS011;12307;50.828;6.080;2022-11-10T05:51:16;2.53;;;1.20;;
24143;SDS011;12307;50.828;6.080;2022-11-10T05:53:42;2.20;;;1.10;;
24143;SDS011;12307;50.828;6.080;2022-11-10T05:56:08;1.60;;;0.90;;
24143;SDS011;12307;50.828;6.080;2022-11-10T05:58:33;2.35;;;0.93;;
24143;SDS011;12307;50.828;6.080;2022-11-10T06:01:00;1.92;;;1.00;;
24143;SDS011;12307;50.828;6.080;2022-11-10T06:03:26;2.65;;;1.00;;
24143;SDS011;12307;50.828;6.080;2022-11-10T06:05:52;2.13;;;0.90;;
24143;SDS011;12307;50.828;6.080;2022-11-10T06:08:17;2.17;;;0.80;;
24143;SDS011;12307;50.828;6.080;2022-11-10T06:10:43;2.75;;;1.00;;
24143;SDS011;12307;50.828;6.080;2022-11-10T06:13:09;2.67;;;0.90;;
24143;SDS011;12307;50.828;6.080;2022-11-10T06:15:35;3.00;;;1.10;;
24143;SDS011;12307;50.828;6.080;2022-11-10T06:18:02;3.13;;;1.08;;
24143;SDS011;12307;50.828;6.080;2022-11-10T06:20:28;3.38;;;1.10;;
24143;SDS011;12307;50.828;6.080;2022-11-10T06:22:57;2.13;;;0.80;;
24143;SDS011;12307;50.828;6.080;2022-11-10T06:25:25;1.88;;;0.90;;
24143;SDS011;12307;50.828;6.080;2022-11-10T06:27:51;2.13;;;1.10;;
24143;SDS011;12307;50.828;6.080;2022-11-10T06:30:17;2.45;;;1.00;;
24143;SDS011;12307;50.828;6.080;2022-11-10T06:32:43;2.88;;;1.10;;
24143;SDS011;12307;50.828;6.080;2022-11-10T06:35:10;1.50;;;0.95;;
24143;SDS011;12307;50.828;6.080;2022-11-10T06:37:36;2.42;;;0.93;;
24143;SDS011;12307;50.828;6.080;2022-11-10T06:40:05;2.90;;;0.90;;
24143;SDS011;12307;50.828;6.080;2022-11-10T06:42:32;2.42;;;1.15;;
24143;SDS011;12307;50.828;6.080;2022-11-10T06:44:59;2.13;;;1.02;;
24143;SDS011;12307;50.828;6.080;2022-11-10T06:47:24;2.53;;;0.90;;
24143;SDS011;12307;50.828;6.080;2022-11-10T06:49:51;2.97;;;1.10;;
24143;SDS011;12307;50.828;6.080;2022-11-10T06:52:18;3.47;;;1.20;;
24143;SDS011;12307;50.828;6.080;2022-11-10T06:54:44;2.53;;;1.02;;
24143;SDS011;12307;50.828;6.080;2022-11-10T06:57:10;1.90;;;0.90;;
24143;SDS011;12307;50.828;6.080;2022-11-10T06:59:35;2.67;;;1.05;;
24143;SDS011;12307;50.828;6.080;2022-11-10T07:02:01;3.53;;;1.23;;
24143;SDS011;12307;50.828;6.080;2022-11-10T07:04:27;2.08;;;0.90;;
24143;SDS011;12307;50.828;6.080;2022-11-10T07:06:52;1.85;;;0.70;;
24143;SDS011;12307;50.828;6.080;2022-11-10T07:09:19;2.70;;;1.10;;
24143;SDS011;12307;50.828;6.080;2022-11-10T07:11:45;2.28;;;1.02;;
24143;SDS011;12307;50.828;6.080;2022-11-10T07:14:11;1.98;;;0.85;;
24143;SDS011;12307;50.828;6.080;2022-11-10T07:16:36;2.15;;;0.93;;
24143;SDS011;12307;50.828;6.080;2022-11-10T07:19:02;2.72;;;1.00;;
24143;SDS011;12307;50.828;6.080;2022-11-10T07:21:28;2.83;;;1.02;;
24143;SDS011;12307;50.828;6.080;2022-11-10T07:23:54;3.22;;;0.95;;
24143;SDS011;12307;50.828;6.080;2022-11-10T07:26:20;3.00;;;0.90;;
24143;SDS011;12307;50.828;6.080;2022-11-10T07:28:46;2.95;;;1.00;;
24143;SDS011;12307;50.828;6.080;2022-11-10T07:31:12;3.47;;;1.13;;
24143;SDS011;12307;50.828;6.080;2022-11-10T07:33:37;3.17;;;1.10;;
24143;SDS011;12307;50.828;6.080;2022-11-10T07:36:03;2.25;;;1.10;;
24143;SDS011;12307;50.828;6.080;2022-11-10T07:38:29;2.15;;;0.90;;
24143;SDS011;12307;50.828;6.080;2022-11-10T07:40:55;2.30;;;0.90;;
24143;SDS011;12307;50.828;6.080;2022-11-10T07:43:23;2.47;;;1.00;;
24143;SDS011;12307;50.828;6.080;2022-11-10T07:45:49;2.72;;;1.00;;
24143;SDS011;12307;50.828;6.080;2022-11-10T07:48:15;2.33;;;0.93;;
24143;SDS011;12307;50.828;6.080;2022-11-10T07:50:42;2.05;;;0.93;;
24143;SDS011;12307;50.828;6.080;2022-11-10T07:53:08;1.70;;;0.80;;
24143;SDS011;12307;50.828;6.080;2022-11-10T07:55:36;2.92;;;1.02;;
24143;SDS011;12307;50.828;6.080;2022-11-10T07:58:03;3.53;;;1.10;;
24143;SDS011;12307;50.828;6.080;2022-11-10T08:00:31;2.17;;;1.00;;
24143;SDS011;12307;50.828;6.080;2022-11-10T08:03:00;3.47;;;1.10;;
24143;SDS011;12307;50.828;6.080;2022-11-10T08:05:26;1.92;;;0.90;;
24143;SDS011;12307;50.828;6.080;2022-11-10T08:07:52;2.10;;;0.95;;
24143;SDS011;12307;50.828;6.080;2022-11-10T08:10:18;2.88;;;1.08;;
24143;SDS011;12307;50.828;6.080;2022-11-10T08:12:43;3.25;;;1.00;;
24143;SDS011;12307;50.828;6.080;2022-11-10T08:15:09;2.00;;;1.02;;
24143;SDS011;12307;50.828;6.080;2022-11-10T08:17:36;2.42;;;1.10;;
24143;SDS011;12307;50.828;6.080;2022-11-10T08:20:02;3.95;;;1.10;;
24143;SDS011;12307;50.828;6.080;2022-11-10T08:22:28;2.65;;;0.90;;
24143;SDS011;12307;50.828;6.080;2022-11-10T08:24:54;3.20;;;1.08;;
24143;SDS011;12307;50.828;6.080;2022-11-10T08:27:20;2.50;;;1.17;;
24143;SDS011;12307;50.828;6.080;2022-11-10T08:29:45;3.13;;;0.93;;
24143;SDS011;12307;50.828;6.080;2022-11-10T08:32:11;2.80;;;1.10;;
24143;SDS011;12307;50.828;6.080;2022-11-10T08:34:38;3.00;;;0.90;;
24143;SDS011;12307;50.828;6.080;2022-11-10T08:37:03;1.80;;;0.80;;
24143;SDS011;12307;50.828;6.080;2022-11-10T08:39:29;2.50;;;1.23;;
24143;SDS011;12307;50.828;6.080;2022-11-10T08:41:55;2.30;;;0.90;;
24143;SDS011;12307;50.828;6.080;2022-11-10T08:44:20;2.33;;;0.90;;
24143;SDS011;12307;50.828;6.080;2022-11-10T08:46:46;2.33;;;1.00;;
24143;SDS011;12307;50.828;6.080;2022-11-10T08:49:12;2.38;;;0.90;;
24143;SDS011;12307;50.828;6.080;2022-11-10T08:51:39;3.15;;;1.00;;
24143;SDS011;12307;50.828;6.080;2022-11-10T08:54:04;2.92;;;1.13;;
24143;SDS011;12307;50.828;6.080;2022-11-10T08:56:30;2.83;;;0.93;;
24143;SDS011;12307;50.828;6.080;2022-11-10T08:58:55;2.10;;;1.00;;
24143;SDS011;12307;50.828;6.080;2022-11-10T09:01:21;2.60;;;1.08;;
24143;SDS011;12307;50.828;6.080;2022-11-10T09:03:47;1.90;;;0.80;;
24143;SDS011;12307;50.828;6.080;2022-11-10T09:06:12;3.42;;;1.15;;
24143;SDS011;12307;50.828;6.080;2022-11-10T09:08:39;4.53;;;1.13;;
24143;SDS011;12307;50.828;6.080;2022-11-10T09:11:05;4.95;;;1.08;;
24143;SDS011;12307;50.828;6.080;2022-11-10T09:13:31;2.60;;;0.98;;
24143;SDS011;12307;50.828;6.080;2022-11-10T09:15:59;2.83;;;1.05;;
24143;SDS011;12307;50.828;6.080;2022-11-10T09:18:25;2.80;;;1.02;;
24143;SDS011;12307;50.828;6.080;2022-11-10T09:20:50;4.13;;;1.20;;
24143;SDS011;12307;50.828;6.080;2022-11-10T09:23:17;2.65;;;0.98;;
24143;SDS011;12307;50.828;6.080;2022-11-10T09:25:48;2.97;;;1.10;;
24143;SDS011;12307;50.828;6.080;2022-11-10T09:28:15;3.35;;;1.15;;
24143;SDS011;12307;50.828;6.080;2022-11-10T09:30:44;2.35;;;1.00;;
24143;SDS011;12307;50.828;6.080;2022-11-10T09:33:10;2.70;;;0.88;;
24143;SDS011;12307;50.828;6.080;2022-11-10T09:35:36;3.35;;;1.00;;
24143;SDS011;12307;50.828;6.080;2022-11-10T09:38:02;2.75;;;1.23;;
24143;SDS011;12307;50.828;6.080;2022-11-10T09:40:30;2.47;;;0.88;;
24143;SDS011;12307;50.828;6.080;2022-11-10T09:43:04;4.22;;;0.90;;
24143;SDS011;12307;50.828;6.080;2022-11-10T09:45:34;3.10;;;1.17;;
24143;SDS011;12307;50.828;6.080;2022-11-10T09:48:04;3.35;;;1.20;;
24143;SDS011;12307;50.828;6.080;2022-11-10T09:50:36;2.08;;;1.00;;
24143;SDS011;12307;50.828;6.080;2022-11-10T09:53:05;2.55;;;0.90;;
24143;SDS011;12307;50.828;6.080;2022-11-10T09:55:40;3.65;;;1.13;;
24143;SDS011;12307;50.828;6.080;2022-11-10T09:58:09;5.00;;;1.15;;
24143;SDS011;12307;50.828;6.080;2022-11-10T10:00:37;2.33;;;1.10;;
24143;SDS011;12307;50.828;6.080;2022-11-10T10:03:05;2.50;;;1.10;;
24143;SDS011;12307;50.828;6.080;2022-11-10T10:05:42;3.78;;;1.20;;
24143;SDS011;12307;50.828;6.080;2022-11-10T10:08:18;4.10;;;1.40;;
24143;SDS011;12307;50.828;6.080;2022-11-10T10:10:50;2.35;;;1.10;;
24143;SDS011;12307;50.828;6.080;2022-11-10T10:13:41;3.80;;;1.10;;
24143;SDS011;12307;50.828;6.080;2022-11-10T10:16:22;2.55;;;1.15;;
24143;SDS011;12307;50.828;6.080;2022-11-10T10:18:57;2.97;;;1.30;;
24143;SDS011;12307;50.828;6.080;2022-11-10T10:21:38;2.22;;;1.00;;
24143;SDS011;12307;50.828;6.080;2022-11-10T10:24:11;2.25;;;1.20;;
24143;SDS011;12307;50.828;6.080;2022-11-10T10:26:39;2.67;;;0.88;;
24143;SDS011;12307;50.828;6.080;2022-11-10T10:29:13;2.25;;;1.00;;
24143;SDS011;12307;50.828;6.080;2022-11-10T10:31:44;2.70;;;0.90;;
24143;SDS011;12307;50.828;6.080;2022-11-10T10:34:12;3.38;;;0.90;;
24143;SDS011;12307;50.828;6.080;2022-11-10T10:36:40;2.47;;;1.00;;
24143;SDS011;12307;50.828;6.080;2022-11-10T10:39:06;2.95;;;1.02;;
24143;SDS011;12307;50.828;6.080;2022-11-10T10:41:36;2.97;;;1.10;;
24143;SDS011;12307;50.828;6.080;2022-11-10T10:44:07;2.42;;;1.10;;
24143;SDS011;12307;50.828;6.080;2022-11-10T10:46:41;2.25;;;1.02;;
24143;SDS011;12307;50.828;6.080;2022-11-10T10:49:11;2.72;;;1.02;;
24143;SDS011;12307;50.828;6.080;2022-11-10T10:51:39;3.85;;;1.10;;
24143;SDS011;12307;50.828;6.080;2022-11-10T10:54:14;4.03;;;1.10;;
24143;SDS011;12307;50.828;6.080;2022-11-10T10:56:48;2.58;;;1.17;;
24143;SDS011;12307;50.828;6.080;2022-11-10T10:59:18;4.30;;;1.15;;
24143;SDS011;12307;50.828;6.080;2022-11-10T11:01:46;2.75;;;1.45;;
24143;SDS011;12307;50.828;6.080;2022-11-10T11:04:27;3.67;;;1.30;;
24143;SDS011;12307;50.828;6.080;2022-11-10T11:06:55;6.85;;;1.20;;
24143;SDS011;12307;50.828;6.080;2022-11-10T11:09:24;3.13;;;1.30;;
24143;SDS011;12307;50.828;6.080;2022-11-10T11:11:58;4.05;;;1.65;;
24143;SDS011;12307;50.828;6.080;2022-11-10T11:14:27;6.93;;;1.50;;
24143;SDS011;12307;50.828;6.080;2022-11-10T11:16:55;4.85;;;1.48;;
24143;SDS011;12307;50.828;6.080;2022-11-10T11:19:22;4.03;;;1.27;;
24143;SDS011;12307;50.828;6.080;2022-11-10T11:22:02;2.90;;;1.23;;
24143;SDS011;12307;50.828;6.080;2022-11-10T11:24:39;5.43;;;1.50;;
24143;SDS011;12307;50.828;6.080;2022-11-10T11:27:11;5.88;;;1.60;;
24143;SDS011;12307;50.828;6.080;2022-11-10T11:32:48;6.72;;;1.85;;
24143;SDS011;12307;50.828;6.080;2022-11-10T11:35:31;7.82;;;1.80;;
24143;SDS011;12307;50.828;6.080;2022-11-10T11:38:09;6.13;;;1.92;;
24143;SDS011;12307;50.828;6.080;2022-11-10T11:40:47;6.90;;;1.85;;
24143;SDS011;12307;50.828;6.080;2022-11-10T11:43:19;9.43;;;1.95;;
24143;SDS011;12307;50.828;6.080;2022-11-10T11:46:04;10.55;;;2.00;;
24143;SDS011;12307;50.828;6.080;2022-11-10T11:48:40;4.43;;;1.48;;
24143;SDS011;12307;50.828;6.080;2022-11-10T11:51:14;5.90;;;1.75;;
24143;SDS011;12307;50.828;6.080;2022-11-10T11:53:51;7.00;;;1.55;;
24143;SDS011;12307;50.828;6.080;2022-11-10T11:56:32;6.18;;;1.95;;
24143;SDS011;12307;50.828;6.080;2022-11-10T11:59:02;7.10;;;1.80;;
24143;SDS011;12307;50.828;6.080;2022-11-10T12:01:50;7.63;;;1.73;;
24143;SDS011;12307;50.828;6.080;2022-11-10T12:04:33;7.10;;;1.80;;
24143;SDS011;12307;50.828;6.080;2022-11-10T12:07:23;7.95;;;1.80;;
24143;SDS011;12307;50.828;6.080;2022-11-10T12:10:02;6.20;;;1.45;;
24143;SDS011;12307;50.828;6.080;2022-11-10T12:12:50;5.78;;;1.63;;
24143;SDS011;12307;50.828;6.080;2022-11-10T12:15:31;4.55;;;1.70;;
24143;SDS011;12307;50.828;6.080;2022-11-10T12:18:06;7.65;;;1.70;;
24143;SDS011;12307;50.828;6.080;2022-11-10T12:20:45;5.13;;;1.50;;
24143;SDS011;12307;50.828;6.080;2022-11-10T12:23:19;6.78;;;1.52;;
24143;SDS011;12307;50.828;6.080;2022-11-10T12:25:52;8.88;;;1.75;;
24143;SDS011;12307;50.828;6.080;2022-11-10T12:28:23;4.57;;;1.40;;
24143;SDS011;12307;50.828;6.080;2022-11-10T12:30:53;5.88;;;1.70;;
24143;SDS011;12307;50.828;6.080;2022-11-10T12:33:28;8.02;;;1.70;;
24143;SDS011;12307;50.828;6.080;2022-11-10T12:35:59;6.25;;;1.60;;
24143;SDS011;12307;50.828;6.080;2022-11-10T12:38:30;7.90;;;1.58;;
24143;SDS011;12307;50.828;6.080;2022-11-10T12:41:02;4.00;;;1.45;;
24143;SDS011;12307;50.828;6.080;2022-11-10T12:43:32;5.72;;;1.63;;
24143;SDS011;12307;50.828;6.080;2022-11-10T12:46:03;5.93;;;1.80;;
24143;SDS011;12307;50.828;6.080;2022-11-10T12:48:38;5.72;;;1.58;;
24143;SDS011;12307;50.828;6.080;2022-11-10T12:51:16;5.10;;;1.42;;
24143;SDS011;12307;50.828;6.080;2022-11-10T12:53:48;5.18;;;1.48;;
24143;SDS011;12307;50.828;6.080;2022-11-10T12:56:16;6.03;;;1.60;;
24143;SDS011;12307;50.828;6.080;2022-11-10T12:58:45;4.57;;;1.70;;
24143;SDS011;12307;50.828;6.080;2022-11-10T13:01:11;6.03;;;1.42;;
24143;SDS011;12307;50.828;6.080;2022-11-10T13:03:50;6.50;;;1.70;;
24143;SDS011;12307;50.828;6.080;2022-11-10T13:06:25;4.20;;;1.55;;
24143;SDS011;12307;50.828;6.080;2022-11-10T13:08:52;3.92;;;1.25;;
24143;SDS011;12307;50.828;6.080;2022-11-10T13:11:26;4.60;;;1.70;;
24143;SDS011;12307;50.828;6.080;2022-11-10T13:13:55;5.60;;;1.40;;
24143;SDS011;12307;50.828;6.080;2022-11-10T13:19:46;2.95;;;1.10;;
24143;SDS011;12307;50.828;6.080;2022-11-10T13:22:27;4.38;;;1.48;;
24143;SDS011;12307;50.828;6.080;2022-11-10T13:27:53;3.88;;;1.42;;
24143;SDS011;12307;50.828;6.080;2022-11-10T13:36:02;4.78;;;1.48;;
24143;SDS011;12307;50.828;6.080;2022-11-10T13:38:32;6.88;;;1.85;;
24143;SDS011;12307;50.828;6.080;2022-11-10T13:43:56;6.05;;;1.55;;
24143;SDS011;12307;50.828;6.080;2022-11-10T13:46:30;4.10;;;1.50;;
24143;SDS011;12307;50.828;6.080;2022-11-10T13:51:52;5.32;;;1.35;;
24143;SDS011;12307;50.828;6.080;2022-11-10T13:54:43;4.72;;;1.40;;
24143;SDS011;12307;50.828;6.080;2022-11-10T13:57:25;4.47;;;1.55;;
24143;SDS011;12307;50.828;6.080;2022-11-10T13:59:54;3.80;;;1.40;;
24143;SDS011;12307;50.828;6.080;2022-11-10T14:08:23;3.58;;;1.45;;
24143;SDS011;12307;50.828;6.080;2022-11-10T14:10:55;5.93;;;1.83;;
24143;SDS011;12307;50.828;6.080;2022-11-10T14:13:24;4.40;;;1.30;;
24143;SDS011;12307;50.828;6.080;2022-11-10T14:15:56;3.53;;;1.38;;
24143;SDS011;12307;50.828;6.080;2022-11-10T14:18:24;4.85;;;1.50;;
24143;SDS011;12307;50.828;6.080;2022-11-10T14:20:53;4.75;;;1.65;;
24143;SDS011;12307;50.828;6.080;2022-11-10T14:23:21;5.68;;;1.55;;
24143;SDS011;12307;50.828;6.080;2022-11-10T14:25:53;4.57;;;1.35;;
24143;SDS011;12307;50.828;6.080;2022-11-10T14:28:24;4.30;;;1.60;;
24143;SDS011;12307;50.828;6.080;2022-11-10T14:30:51;5.25;;;1.42;;
24143;SDS011;12307;50.828;6.080;2022-11-10T14:33:17;4.60;;;1.60;;
24143;SDS011;12307;50.828;6.080;2022-11-10T14:35:46;4.47;;;1.63;;
24143;SDS011;12307;50.828;6.080;2022-11-10T14:38:16;4.07;;;1.38;;
24143;SDS011;12307;50.828;6.080;2022-11-10T14:40:44;5.38;;;1.70;;
24143;SDS011;12307;50.828;6.080;2022-11-10T14:43:23;4.57;;;1.75;;
24143;SDS011;12307;50.828;6.080;2022-11-10T14:45:51;4.80;;;1.65;;
24143;SDS011;12307;50.828;6.080;2022-11-10T14:48:18;5.25;;;1.67;;
24143;SDS011;12307;50.828;6.080;2022-11-10T14:50:45;5.88;;;1.52;;
24143;SDS011;12307;50.828;6.080;2022-11-10T14:53:13;5.15;;;1.60;;
24143;SDS011;12307;50.828;6.080;2022-11-10T14:55:46;4.50;;;1.67;;
24143;SDS011;12307;50.828;6.080;2022-11-10T14:58:15;4.95;;;1.48;;
24143;SDS011;12307;50.828;6.080;2022-11-10T15:00:46;5.25;;;1.52;;
24143;SDS011;12307;50.828;6.080;2022-11-10T15:03:14;4.30;;;1.88;;
24143;SDS011;12307;50.828;6.080;2022-11-10T15:05:44;3.45;;;1.70;;
24143;SDS011;12307;50.828;6.080;2022-11-10T15:08:10;4.68;;;1.50;;
24143;SDS011;12307;50.828;6.080;2022-11-10T15:10:44;4.43;;;1.65;;
24143;SDS011;12307;50.828;6.080;2022-11-10T15:13:16;5.22;;;1.60;;
24143;SDS011;12307;50.828;6.080;2022-11-10T15:15:44;5.32;;;1.58;;
24143;SDS011;12307;50.828;6.080;2022-11-10T15:18:22;3.58;;;1.50;;
24143;SDS011;12307;50.828;6.080;2022-11-10T15:20:55;3.58;;;1.33;;
24143;SDS011;12307;50.828;6.080;2022-11-10T15:23:26;6.10;;;1.38;;